Time;durP1;ratioP1;P1;durP2;ratioP2;P2;SDS_P1;SDS_P2;PMS_P1;PMS_P2;Temp;Humidity;BMP_temperature;BMP_pressure;BME280_temperature;BME280_humidity;BME280_pressure;Samples;Min_cycle;Max_cycle;Signal;HPM_P1;HPM_P2
2022/08/30 00:01:12;;;;;;;;;;;24.60;80.50;;;;;;5037302;28;20397;-62
2022/08/30 00:03:39;;;;;;;;;;;24.60;80.80;;;;;;5046749;28;19925;-62
2022/08/30 00:06:05;;;;;;;;;;;24.50;80.60;;;;;;5035692;28;20008;-62
2022/08/30 00:08:31;;;;;;;;;;;24.50;80.70;;;;;;5040750;28;19987;-61
2022/08/30 00:10:57;;;;;;;;;;;24.40;80.50;;;;;;5048022;28;20370;-61
2022/08/30 00:13:23;;;;;;;;;;;24.60;80.80;;;;;;5052854;28;19979;-62
2022/08/30 00:15:49;;;;;;;;;;;24.50;80.00;;;;;;5035294;28;19925;-62
2022/08/30 00:18:16;;;;;;;;;;;24.40;80.70;;;;;;5041045;28;19979;-64
2022/08/30 00:20:42;;;;;;;;;;;24.50;80.80;;;;;;5054766;28;19932;-61
2022/08/30 00:23:08;;;;;;;;;;;24.20;80.40;;;;;;5055157;28;19929;-62
2022/08/30 00:25:33;;;;;;;;;;;24.50;80.40;;;;;;5036438;28;19936;-62
2022/08/30 00:27:59;;;;;;;;;;;24.40;80.50;;;;;;5051294;28;20350;-61
2022/08/30 00:30:25;;;;;;;;;;;24.50;80.50;;;;;;5035200;28;19933;-62
2022/08/30 00:32:50;;;;;;;;;;;24.30;80.50;;;;;;5059653;28;19978;-61
2022/08/30 00:35:17;;;;;;;;;;;24.20;80.20;;;;;;5035772;28;19928;-61
2022/08/30 00:37:43;;;;;;;;;;;24.10;80.40;;;;;;5050574;28;19932;-62
2022/08/30 00:40:10;;;;;;;;;;;24.20;80.10;;;;;;5053728;28;19983;-62
2022/08/30 00:42:36;;;;;;;;;;;24.20;80.30;;;;;;5040952;28;19929;-61
2022/08/30 00:45:08;;;;;;;;;;;24.30;80.40;;;;;;5056643;28;20382;-61
2022/08/30 00:47:34;;;;;;;;;;;24.10;80.50;;;;;;5051552;28;19929;-61
2022/08/30 00:50:00;;;;;;;;;;;24.20;80.10;;;;;;5066599;28;19925;-61
2022/08/30 00:52:25;;;;;;;;;;;24.30;80.40;;;;;;5069428;28;20297;-62
2022/08/30 00:54:51;;;;;;;;;;;24.40;80.30;;;;;;5069928;28;20302;-62
2022/08/30 00:57:17;;;;;;;;;;;24.40;80.30;;;;;;5064506;28;19925;-61
2022/08/30 00:59:43;;;;;;;;;;;24.20;79.80;;;;;;5053107;28;20432;-62
2022/08/30 01:02:09;;;;;;;;;;;24.30;80.50;;;;;;5041797;28;19979;-62
2022/08/30 01:04:34;;;;;;;;;;;24.40;80.30;;;;;;5046490;28;19929;-62
2022/08/30 01:07:00;;;;;;;;;;;24.20;80.00;;;;;;5036468;28;20379;-62
2022/08/30 01:09:26;;;;;;;;;;;24.40;80.10;;;;;;5051858;28;19925;-62
2022/08/30 01:11:51;;;;;;;;;;;24.40;80.00;;;;;;5031745;28;20083;-61
2022/08/30 01:14:17;;;;;;;;;;;24.50;80.30;;;;;;5018505;28;19925;-61
2022/08/30 01:16:43;;;;;;;;;;;24.40;80.10;;;;;;5045301;28;19931;-62
2022/08/30 01:19:12;;;;;;;;;;;24.20;80.10;;;;;;5017045;28;19933;-62
2022/08/30 01:21:47;;;;;;;;;;;24.40;81.00;;;;;;5033769;28;19925;-62
2022/08/30 01:24:13;;;;;;;;;;;24.20;78.80;;;;;;5056235;28;19930;-61
2022/08/30 01:26:39;;;;;;;;;;;24.20;79.80;;;;;;5028956;28;19970;-65
2022/08/30 01:29:09;;;;;;;;;;;24.20;80.10;;;;;;5018507;28;20264;-61
2022/08/30 01:31:35;;;;;;;;;;;24.20;78.80;;;;;;5045804;28;19926;-62
2022/08/30 01:34:06;;;;;;;;;;;24.20;80.10;;;;;;5027413;28;19964;-62
2022/08/30 01:36:32;;;;;;;;;;;24.10;78.80;;;;;;5033397;28;19994;-61
2022/08/30 01:38:58;;;;;;;;;;;24.30;80.30;;;;;;5022520;28;19925;-62
2022/08/30 01:41:24;;;;;;;;;;;24.20;80.00;;;;;;5014582;28;19952;-64
2022/08/30 01:43:50;;;;;;;;;;;24.10;79.90;;;;;;5023637;28;20302;-61
2022/08/30 01:46:16;;;;;;;;;;;24.20;80.30;;;;;;5031338;28;20341;-61
2022/08/30 01:48:42;;;;;;;;;;;24.10;80.20;;;;;;5023134;28;19963;-62
2022/08/30 01:51:09;;;;;;;;;;;23.90;79.90;;;;;;5017292;28;19929;-61
2022/08/30 01:53:34;;;;;;;;;;;24.00;80.20;;;;;;5030376;28;19959;-62
2022/08/30 01:56:00;;;;;;;;;;;23.90;79.90;;;;;;5023014;28;19937;-62
2022/08/30 01:58:27;;;;;;;;;;;23.90;79.70;;;;;;5033444;28;19929;-62
2022/08/30 02:00:52;;;;;;;;;;;23.80;79.80;;;;;;5020746;28;19972;-62
2022/08/30 02:03:18;;;;;;;;;;;24.00;79.80;;;;;;5056516;28;19925;-61
2022/08/30 02:05:44;;;;;;;;;;;24.10;80.00;;;;;;5034046;28;19929;-61
2022/08/30 02:08:09;;;;;;;;;;;24.10;79.50;;;;;;5052062;28;19924;-61
2022/08/30 02:10:35;;;;;;;;;;;24.20;79.70;;;;;;5057049;28;19979;-62
2022/08/30 02:13:01;;;;;;;;;;;24.20;79.70;;;;;;5056753;28;19933;-61
2022/08/30 02:15:27;;;;;;;;;;;24.10;80.00;;;;;;5056997;28;19928;-61
2022/08/30 02:17:53;;;;;;;;;;;23.80;79.60;;;;;;5052231;28;20698;-61
2022/08/30 02:20:18;;;;;;;;;;;23.90;79.70;;;;;;5064376;28;19925;-61
2022/08/30 02:22:45;;;;;;;;;;;24.30;79.80;;;;;;5051861;28;19936;-62
2022/08/30 02:25:10;;;;;;;;;;;24.00;79.70;;;;;;5039701;28;20264;-61
2022/08/30 02:27:36;;;;;;;;;;;24.00;79.70;;;;;;5056528;28;19932;-62
2022/08/30 02:30:03;;;;;;;;;;;24.30;79.70;;;;;;5039144;28;19921;-62
2022/08/30 02:32:28;;;;;;;;;;;24.20;79.90;;;;;;5038580;28;19980;-64
2022/08/30 02:34:54;;;;;;;;;;;24.10;79.60;;;;;;5019965;28;20026;-61
2022/08/30 02:37:20;;;;;;;;;;;23.70;79.50;;;;;;5037185;28;19964;-67
2022/08/30 02:39:46;;;;;;;;;;;24.10;79.60;;;;;;5053886;28;19925;-61
2022/08/30 02:42:11;;;;;;;;;;;24.20;79.80;;;;;;5053302;28;19932;-61
2022/08/30 02:44:37;;;;;;;;;;;23.90;79.40;;;;;;5047034;28;19925;-61
2022/08/30 02:47:03;;;;;;;;;;;23.80;79.50;;;;;;5037500;28;19932;-62
2022/08/30 02:49:28;;;;;;;;;;;24.20;79.60;;;;;;5040809;28;19928;-61
2022/08/30 02:51:54;;;;;;;;;;;24.00;79.60;;;;;;5050775;28;19987;-62
2022/08/30 02:54:19;;;;;;;;;;;24.10;79.50;;;;;;5037670;28;20030;-61
2022/08/30 02:56:46;;;;;;;;;;;24.00;79.60;;;;;;5037567;28;19929;-62
2022/08/30 02:59:12;;;;;;;;;;;24.00;79.80;;;;;;5041201;28;19929;-61
2022/08/30 03:01:38;;;;;;;;;;;24.10;79.80;;;;;;5044440;28;19929;-61
2022/08/30 03:04:03;;;;;;;;;;;23.70;79.40;;;;;;5037236;28;19932;-62
2022/08/30 03:06:30;;;;;;;;;;;24.00;79.60;;;;;;5036408;28;19925;-62
2022/08/30 03:08:56;;;;;;;;;;;24.10;79.70;;;;;;5035795;28;19931;-62
2022/08/30 03:11:21;;;;;;;;;;;23.90;79.30;;;;;;5027410;28;19925;-61
2022/08/30 03:13:47;;;;;;;;;;;24.10;79.50;;;;;;5028199;28;20367;-61
2022/08/30 03:16:12;;;;;;;;;;;24.20;79.70;;;;;;5051311;28;19929;-63
2022/08/30 03:18:38;;;;;;;;;;;24.10;79.50;;;;;;5035393;28;19968;-64
2022/08/30 03:21:08;;;;;;;;;;;24.20;79.60;;;;;;5038476;28;19929;-61
2022/08/30 03:23:34;;;;;;;;;;;23.90;79.70;;;;;;5052011;28;19936;-62
2022/08/30 03:25:59;;;;;;;;;;;24.00;79.60;;;;;;5050992;28;19926;-62
2022/08/30 03:28:25;;;;;;;;;;;24.00;79.50;;;;;;5053882;28;19932;-62
2022/08/30 03:30:51;;;;;;;;;;;24.00;79.60;;;;;;5054382;28;20263;-62
2022/08/30 03:33:16;;;;;;;;;;;24.00;79.50;;;;;;5046457;28;20342;-62
2022/08/30 03:35:42;;;;;;;;;;;24.00;79.60;;;;;;5035999;28;19933;-61
2022/08/30 03:38:08;;;;;;;;;;;24.20;79.50;;;;;;5040849;28;19957;-61
2022/08/30 03:40:34;;;;;;;;;;;24.10;79.60;;;;;;5035187;28;19983;-61
2022/08/30 03:43:00;;;;;;;;;;;24.00;79.50;;;;;;5036662;28;19932;-61
2022/08/30 03:45:25;;;;;;;;;;;23.90;80.00;;;;;;5021920;28;20387;-61
2022/08/30 03:47:51;;;;;;;;;;;23.80;79.40;;;;;;5035344;28;19925;-64
2022/08/30 03:50:17;;;;;;;;;;;24.10;79.60;;;;;;5020953;28;20390;-61
2022/08/30 03:52:44;;;;;;;;;;;23.80;79.40;;;;;;5037396;28;20286;-63
2022/08/30 03:55:10;;;;;;;;;;;23.80;79.50;;;;;;5049162;28;19924;-62
2022/08/30 03:57:35;;;;;;;;;;;23.90;79.60;;;;;;5025756;28;20304;-61
2022/08/30 04:00:02;;;;;;;;;;;24.00;79.50;;;;;;5054065;28;19968;-61
2022/08/30 04:02:27;;;;;;;;;;;23.80;79.40;;;;;;5040213;28;19968;-61
2022/08/30 04:04:53;;;;;;;;;;;23.80;79.40;;;;;;4979420;28;1876220;-66
2022/08/30 04:07:19;;;;;;;;;;;24.20;79.40;;;;;;5037023;28;19948;-68
2022/08/30 04:09:45;;;;;;;;;;;23.80;79.30;;;;;;5035588;28;20010;-66
2022/08/30 04:12:10;;;;;;;;;;;23.80;79.60;;;;;;5035612;28;19972;-62
2022/08/30 04:14:36;;;;;;;;;;;23.80;80.10;;;;;;5068701;28;19924;-64
2022/08/30 04:17:01;;;;;;;;;;;23.80;79.40;;;;;;5048871;28;20023;-62
2022/08/30 04:19:27;;;;;;;;;;;24.10;79.50;;;;;;5064853;28;19931;-67
2022/08/30 04:21:53;;;;;;;;;;;23.70;79.30;;;;;;5050362;28;20202;-61
2022/08/30 04:24:18;;;;;;;;;;;23.90;79.20;;;;;;5039725;28;19925;-62
2022/08/30 04:26:44;;;;;;;;;;;23.90;79.50;;;;;;5058910;28;19925;-62
2022/08/30 04:29:11;;;;;;;;;;;23.60;79.20;;;;;;5027315;28;19925;-62
2022/08/30 04:31:36;;;;;;;;;;;24.00;79.60;;;;;;5035329;28;19925;-61
2022/08/30 04:34:02;;;;;;;;;;;24.10;79.50;;;;;;5046146;28;19925;-61
2022/08/30 04:36:28;;;;;;;;;;;23.60;79.30;;;;;;5045643;28;19944;-62
2022/08/30 04:38:53;;;;;;;;;;;23.90;79.30;;;;;;5048678;28;19929;-61
2022/08/30 04:41:19;;;;;;;;;;;23.80;79.40;;;;;;5054928;28;19925;-61
2022/08/30 04:43:45;;;;;;;;;;;23.90;79.40;;;;;;5064077;28;19931;-61
2022/08/30 04:46:12;;;;;;;;;;;23.80;79.60;;;;;;5060826;28;19925;-61
2022/08/30 04:48:38;;;;;;;;;;;23.90;79.80;;;;;;5050262;28;19924;-62
2022/08/30 04:51:05;;;;;;;;;;;24.00;79.70;;;;;;5054433;28;20390;-62
2022/08/30 04:53:31;;;;;;;;;;;23.90;79.80;;;;;;5054297;28;19932;-61
2022/08/30 04:55:56;;;;;;;;;;;23.70;79.60;;;;;;5054299;28;20011;-62
2022/08/30 04:58:22;;;;;;;;;;;24.00;79.50;;;;;;5054283;28;19920;-61
2022/08/30 05:00:48;;;;;;;;;;;23.90;79.70;;;;;;5057206;28;19926;-61
2022/08/30 05:03:14;;;;;;;;;;;23.90;79.50;;;;;;5034924;28;19929;-63
2022/08/30 05:05:40;;;;;;;;;;;24.00;79.60;;;;;;5034830;28;20390;-61
2022/08/30 05:08:07;;;;;;;;;;;23.80;79.30;;;;;;5036104;28;19929;-62
2022/08/30 05:10:33;;;;;;;;;;;23.70;79.60;;;;;;5046567;28;20341;-62
2022/08/30 05:12:58;;;;;;;;;;;23.80;79.60;;;;;;5034352;28;19929;-62
2022/08/30 05:15:24;;;;;;;;;;;23.70;79.40;;;;;;5039199;28;20326;-61
2022/08/30 05:17:50;;;;;;;;;;;24.00;79.60;;;;;;5037536;28;19926;-61
2022/08/30 05:20:16;;;;;;;;;;;24.00;79.60;;;;;;5035239;28;20385;-61
2022/08/30 05:22:48;;;;;;;;;;;23.90;79.50;;;;;;5034205;28;20060;-61
2022/08/30 05:25:17;;;;;;;;;;;24.00;79.70;;;;;;5038055;28;19929;-62
2022/08/30 05:27:43;;;;;;;;;;;23.90;78.30;;;;;;5034345;28;20409;-62
2022/08/30 05:30:09;;;;;;;;;;;24.00;79.30;;;;;;5045369;28;19975;-62
2022/08/30 05:32:35;;;;;;;;;;;23.60;78.80;;;;;;5039737;28;20295;-61
2022/08/30 05:35:00;;;;;;;;;;;24.10;79.50;;;;;;5034997;28;19932;-61
2022/08/30 05:37:26;;;;;;;;;;;24.00;79.60;;;;;;5034209;28;19925;-61
2022/08/30 05:39:52;;;;;;;;;;;24.00;79.50;;;;;;5036501;28;19925;-63
2022/08/30 05:42:18;;;;;;;;;;;24.00;79.50;;;;;;5039542;28;19936;-61
2022/08/30 05:44:43;;;;;;;;;;;24.10;79.60;;;;;;5034949;28;19983;-61
2022/08/30 05:47:09;;;;;;;;;;;24.10;79.60;;;;;;5052565;28;19982;-61
2022/08/30 05:49:34;;;;;;;;;;;24.10;79.40;;;;;;5047781;28;19932;-62
2022/08/30 05:52:00;;;;;;;;;;;24.00;79.40;;;;;;5028409;28;19932;-61
2022/08/30 05:54:26;;;;;;;;;;;24.20;79.20;;;;;;5039862;28;19924;-61
2022/08/30 05:56:52;;;;;;;;;;;24.30;78.80;;;;;;5054381;28;20007;-61
2022/08/30 05:59:17;;;;;;;;;;;24.30;78.70;;;;;;5051186;28;20337;-62
2022/08/30 06:01:44;;;;;;;;;;;24.50;78.80;;;;;;5052142;28;19932;-62
2022/08/30 06:04:10;;;;;;;;;;;25.00;78.90;;;;;;5024116;28;19978;-62
2022/08/30 06:06:36;;;;;;;;;;;25.10;78.60;;;;;;5028557;28;20004;-62
2022/08/30 06:09:03;;;;;;;;;;;25.00;78.30;;;;;;5045789;28;19931;-61
2022/08/30 06:11:28;;;;;;;;;;;25.20;78.10;;;;;;5053744;28;19983;-61
2022/08/30 06:13:54;;;;;;;;;;;25.50;77.60;;;;;;5044737;28;20017;-63
2022/08/30 06:16:20;;;;;;;;;;;25.40;77.60;;;;;;5048270;28;19924;-64
2022/08/30 06:18:46;;;;;;;;;;;25.70;77.60;;;;;;5038342;28;20294;-61
2022/08/30 06:21:15;;;;;;;;;;;26.00;77.50;;;;;;5052745;28;19954;-62
2022/08/30 06:23:41;;;;;;;;;;;25.70;75.60;;;;;;5039809;28;19925;-67
2022/08/30 06:26:07;;;;;;;;;;;25.90;76.70;;;;;;5033688;28;19932;-66
2022/08/30 06:28:33;;;;;;;;;;;25.80;76.30;;;;;;5041980;28;19964;-67
2022/08/30 06:30:58;;;;;;;;;;;25.80;76.60;;;;;;5053046;28;20371;-68
2022/08/30 06:33:24;;;;;;;;;;;26.20;76.30;;;;;;5053104;28;19978;-64
2022/08/30 06:35:50;;;;;;;;;;;26.20;76.10;;;;;;5052320;28;19955;-62
2022/08/30 06:38:15;;;;;;;;;;;26.20;76.00;;;;;;5052416;28;19925;-62
2022/08/30 06:40:41;;;;;;;;;;;26.60;76.10;;;;;;5037851;28;20370;-66
2022/08/30 06:43:07;;;;;;;;;;;26.20;75.40;;;;;;5033346;28;19922;-65
2022/08/30 06:45:33;;;;;;;;;;;26.50;75.50;;;;;;5048268;28;19970;-61
2022/08/30 06:47:58;;;;;;;;;;;26.70;75.90;;;;;;5052569;28;19925;-64
2022/08/30 06:50:24;;;;;;;;;;;26.70;75.40;;;;;;5051551;28;19955;-66
2022/08/30 06:52:50;;;;;;;;;;;26.90;75.60;;;;;;5052157;28;19931;-63
2022/08/30 06:55:16;;;;;;;;;;;26.90;75.30;;;;;;5036548;28;20287;-61
2022/08/30 06:57:41;;;;;;;;;;;27.20;75.50;;;;;;5045013;28;19925;-61
2022/08/30 07:00:07;;;;;;;;;;;27.00;75.00;;;;;;5053331;28;19924;-66
2022/08/30 07:02:35;;;;;;;;;;;27.00;74.80;;;;;;5048514;28;19975;-60
2022/08/30 07:05:01;;;;;;;;;;;27.10;75.20;;;;;;5056752;28;19925;-61
2022/08/30 07:07:27;;;;;;;;;;;27.30;75.00;;;;;;5045439;28;19976;-61
2022/08/30 07:09:53;;;;;;;;;;;27.10;74.00;;;;;;5048751;28;20394;-62
2022/08/30 07:12:19;;;;;;;;;;;27.50;74.90;;;;;;5050905;28;19939;-63
2022/08/30 07:14:45;;;;;;;;;;;27.30;73.90;;;;;;5043035;28;19925;-66
2022/08/30 07:19:55;;;;;;;;;;;27.40;72.70;;;;;;5060716;28;19987;-62
2022/08/30 07:22:20;;;;;;;;;;;27.10;73.40;;;;;;5036333;28;19929;-62
2022/08/30 07:24:46;;;;;;;;;;;27.10;72.60;;;;;;5035218;28;19975;-62
2022/08/30 07:27:12;;;;;;;;;;;27.10;72.80;;;;;;5035363;28;19924;-63
2022/08/30 07:29:38;;;;;;;;;;;27.30;73.20;;;;;;5048899;28;20363;-63
2022/08/30 07:32:03;;;;;;;;;;;27.00;72.40;;;;;;5047812;28;20344;-62
2022/08/30 07:34:29;;;;;;;;;;;27.30;72.50;;;;;;5056011;28;20019;-62
2022/08/30 07:36:55;;;;;;;;;;;27.30;72.60;;;;;;5053158;28;19931;-68
2022/08/30 07:39:20;;;;;;;;;;;27.10;72.70;;;;;;5044352;28;19925;-63
2022/08/30 07:41:47;;;;;;;;;;;27.30;73.90;;;;;;5047323;28;20012;-62
2022/08/30 07:44:13;;;;;;;;;;;27.10;72.80;;;;;;5055360;28;19971;-63
2022/08/30 07:46:38;;;;;;;;;;;26.90;73.70;;;;;;5052767;28;19925;-64
2022/08/30 07:49:04;;;;;;;;;;;26.90;73.00;;;;;;5046505;28;20003;-62
2022/08/30 07:51:30;;;;;;;;;;;27.30;72.90;;;;;;5034768;28;19925;-62
2022/08/30 07:53:56;;;;;;;;;;;27.10;72.00;;;;;;5036105;28;19964;-63
2022/08/30 07:56:24;;;;;;;;;;;27.20;71.90;;;;;;5061348;28;19933;-62
2022/08/30 07:58:50;;;;;;;;;;;28.50;71.70;;;;;;5035972;28;20291;-63
2022/08/30 08:01:16;;;;;;;;;;;27.20;71.80;;;;;;5036661;28;19936;-62
2022/08/30 08:03:41;;;;;;;;;;;27.30;71.90;;;;;;5034600;28;19931;-62
2022/08/30 08:06:07;;;;;;;;;;;26.90;71.90;;;;;;5025768;28;19925;-64
2022/08/30 08:08:33;;;;;;;;;;;27.40;72.40;;;;;;5035421;28;19929;-64
2022/08/30 08:11:08;;;;;;;;;;;27.40;71.90;;;;;;5036992;28;19975;-64
2022/08/30 08:13:34;;;;;;;;;;;27.20;71.00;;;;;;5035902;28;19931;-63
2022/08/30 08:16:00;;;;;;;;;;;27.60;72.30;;;;;;5017953;28;19925;-62
2022/08/30 08:18:26;;;;;;;;;;;27.30;70.90;;;;;;5036196;28;19925;-62
2022/08/30 08:20:51;;;;;;;;;;;27.40;70.90;;;;;;5035400;28;19925;-63
2022/08/30 08:23:17;;;;;;;;;;;27.30;70.50;;;;;;5035693;28;20020;-65
2022/08/30 08:25:42;;;;;;;;;;;27.20;70.70;;;;;;5035073;28;19932;-63
2022/08/30 08:28:08;;;;;;;;;;;27.50;71.20;;;;;;5035362;28;19956;-63
2022/08/30 08:30:34;;;;;;;;;;;27.30;71.60;;;;;;5034996;28;20378;-62
2022/08/30 08:33:00;;;;;;;;;;;27.20;72.40;;;;;;5036148;28;19925;-62
2022/08/30 08:35:26;;;;;;;;;;;27.10;71.10;;;;;;5034956;28;19932;-62
2022/08/30 08:37:52;;;;;;;;;;;27.10;70.60;;;;;;5067848;28;20011;-62
2022/08/30 08:40:17;;;;;;;;;;;27.20;70.50;;;;;;5035328;28;19925;-63
2022/08/30 08:42:47;;;;;;;;;;;27.30;71.00;;;;;;5035597;28;19933;-63
2022/08/30 08:45:14;;;;;;;;;;;27.30;71.50;;;;;;5066748;28;19975;-63
2022/08/30 08:47:40;;;;;;;;;;;27.20;71.20;;;;;;5050140;28;19951;-61
2022/08/30 08:50:09;;;;;;;;;;;27.10;70.60;;;;;;5050368;28;19929;-62
2022/08/30 08:55:25;;;;;;;;;;;27.10;70.10;;;;;;5034847;28;20024;-63
2022/08/30 08:57:51;;;;;;;;;;;27.00;73.10;;;;;;5051197;28;20024;-62
2022/08/30 09:00:17;;;;;;;;;;;26.80;71.20;;;;;;5053975;28;19974;-62
2022/08/30 09:02:42;;;;;;;;;;;27.20;70.40;;;;;;5040934;28;19924;-62
2022/08/30 09:05:08;;;;;;;;;;;27.10;70.40;;;;;;5034423;28;20457;-63
2022/08/30 09:07:38;;;;;;;;;;;26.90;70.20;;;;;;5034650;28;19936;-63
2022/08/30 09:10:04;;;;;;;;;;;26.90;70.90;;;;;;5035307;28;19940;-62
2022/08/30 09:12:30;;;;;;;;;;;26.60;70.90;;;;;;5035219;28;19925;-66
2022/08/30 09:15:15;;;;;;;;;;;27.20;71.00;;;;;;5036347;28;20271;-62
2022/08/30 09:17:50;;;;;;;;;;;27.20;70.40;;;;;;5029749;28;19964;-62
2022/08/30 09:20:25;;;;;;;;;;;27.00;71.50;;;;;;5043023;28;20032;-63
2022/08/30 09:22:50;;;;;;;;;;;26.80;70.40;;;;;;5016697;28;20330;-68
2022/08/30 09:25:19;;;;;;;;;;;27.30;72.10;;;;;;5049790;28;19925;-63
2022/08/30 09:27:45;;;;;;;;;;;27.20;70.70;;;;;;5034404;28;19928;-67
2022/08/30 09:30:23;;;;;;;;;;;27.30;72.00;;;;;;5024361;28;20398;-62
2022/08/30 09:32:51;;;;;;;;;;;26.80;68.90;;;;;;5032826;28;20019;-63
2022/08/30 09:35:25;;;;;;;;;;;26.90;72.10;;;;;;5046133;28;19965;-62
2022/08/30 09:37:55;;;;;;;;;;;26.90;69.70;;;;;;5034194;28;20354;-62
2022/08/30 09:40:27;;;;;;;;;;;26.90;68.60;;;;;;5033842;28;20027;-62
2022/08/30 09:43:06;;;;;;;;;;;26.90;69.50;;;;;;5034023;28;19968;-62
2022/08/30 09:45:34;;;;;;;;;;;26.80;69.40;;;;;;5041258;28;19970;-62
2022/08/30 09:48:00;;;;;;;;;;;26.80;70.00;;;;;;5065837;28;19970;-62
2022/08/30 09:50:26;;;;;;;;;;;26.80;69.90;;;;;;5052648;28;20027;-62
2022/08/30 09:53:10;;;;;;;;;;;26.80;70.70;;;;;;5069116;28;20023;-62
2022/08/30 09:55:45;;;;;;;;;;;26.70;68.20;;;;;;5018451;28;19951;-61
2022/08/30 09:58:23;;;;;;;;;;;26.80;68.10;;;;;;5033976;28;19925;-61
2022/08/30 10:00:49;;;;;;;;;;;26.50;67.60;;;;;;5034000;28;20012;-62
2022/08/30 10:03:24;;;;;;;;;;;26.50;69.00;;;;;;5033542;28;20354;-62
2022/08/30 10:06:07;;;;;;;;;;;26.60;68.00;;;;;;5034024;28;19931;-71
2022/08/30 10:08:40;;;;;;;;;;;26.40;68.10;;;;;;5046538;28;19925;-62
2022/08/30 10:11:14;;;;;;;;;;;26.30;68.00;;;;;;5039299;28;19925;-62
2022/08/30 10:13:46;;;;;;;;;;;26.40;68.10;;;;;;5053561;28;19925;-62
2022/08/30 10:16:24;;;;;;;;;;;26.30;68.80;;;;;;5053727;28;20019;-62
2022/08/30 10:18:58;;;;;;;;;;;26.40;69.70;;;;;;5035068;28;19925;-61
2022/08/30 10:21:28;;;;;;;;;;;26.20;69.40;;;;;;5047730;28;19932;-61
2022/08/30 10:24:01;;;;;;;;;;;26.10;68.90;;;;;;5033388;28;20401;-61
2022/08/30 10:26:29;;;;;;;;;;;26.50;68.50;;;;;;5032481;28;19925;-61
2022/08/30 10:29:05;;;;;;;;;;;26.40;69.80;;;;;;5038412;28;19925;-62
2022/08/30 10:31:40;;;;;;;;;;;26.50;69.80;;;;;;5036344;28;19972;-62
2022/08/30 10:34:08;;;;;;;;;;;26.30;68.10;;;;;;5032189;28;19924;-61
2022/08/30 10:36:40;;;;;;;;;;;26.30;69.40;;;;;;5021629;28;20387;-62
2022/08/30 10:39:06;;;;;;;;;;;26.30;68.00;;;;;;5037488;28;20355;-61
2022/08/30 10:41:42;;;;;;;;;;;26.50;69.80;;;;;;5072711;28;19960;-64
2022/08/30 10:44:14;;;;;;;;;;;26.30;68.20;;;;;;5072172;28;20367;-62
2022/08/30 10:47:00;;;;;;;;;;;26.60;68.60;;;;;;5056536;28;19924;-62
2022/08/30 10:49:26;;;;;;;;;;;26.60;68.50;;;;;;5049769;28;19932;-62
2022/08/30 10:51:55;;;;;;;;;;;26.40;69.60;;;;;;5035961;28;19932;-62
2022/08/30 10:54:36;;;;;;;;;;;26.60;68.20;;;;;;5036899;28;20383;-62
2022/08/30 10:57:01;;;;;;;;;;;26.50;68.20;;;;;;5037705;28;19932;-69
2022/08/30 10:59:27;;;;;;;;;;;26.40;69.40;;;;;;5038048;28;20019;-68
2022/08/30 11:02:12;;;;;;;;;;;26.20;69.20;;;;;;5052509;28;20015;-68
2022/08/30 11:04:51;;;;;;;;;;;26.60;68.40;;;;;;5036924;28;19925;-72
2022/08/30 11:07:36;;;;;;;;;;;26.40;68.00;;;;;;5036567;28;19948;-62
2022/08/30 11:10:15;;;;;;;;;;;26.50;68.60;;;;;;5043077;28;19972;-62
2022/08/30 11:13:11;;;;;;;;;;;26.40;70.30;;;;;;5042626;28;20327;-62
2022/08/30 11:15:51;;;;;;;;;;;26.50;68.80;;;;;;5034906;28;19925;-62
2022/08/30 11:18:17;;;;;;;;;;;26.60;70.10;;;;;;5034692;28;19925;-62
2022/08/30 11:20:49;;;;;;;;;;;26.60;69.80;;;;;;5033408;28;20065;-62
2022/08/30 11:23:20;;;;;;;;;;;26.70;68.70;;;;;;5016910;28;19932;-62
2022/08/30 11:25:45;;;;;;;;;;;26.30;68.50;;;;;;5016813;28;19925;-62
2022/08/30 11:28:11;;;;;;;;;;;26.30;69.50;;;;;;5034899;28;20027;-62
2022/08/30 11:30:37;;;;;;;;;;;26.20;69.20;;;;;;5019595;28;19952;-62
2022/08/30 11:33:08;;;;;;;;;;;26.40;69.50;;;;;;5031961;28;19936;-73
2022/08/30 11:35:35;;;;;;;;;;;27.00;69.00;;;;;;5034092;28;20349;-70
2022/08/30 11:38:07;;;;;;;;;;;26.50;70.00;;;;;;5033961;28;20020;-62
2022/08/30 11:40:47;;;;;;;;;;;26.10;70.20;;;;;;5017378;28;19987;-62
2022/08/30 11:43:45;;;;;;;;;;;26.30;68.90;;;;;;5032719;28;19925;-62
2022/08/30 11:46:17;;;;;;;;;;;26.20;68.80;;;;;;4973255;28;20370;-62
2022/08/30 11:48:43;;;;;;;;;;;26.40;69.30;;;;;;4972194;28;20374;-62
2022/08/30 11:51:32;;;;;;;;;;;26.10;70.60;;;;;;4974907;28;19926;-62
2022/08/30 11:54:01;;;;;;;;;;;26.20;69.20;;;;;;4901886;29;19963;-62
2022/08/30 11:56:45;;;;;;;;;;;26.50;71.00;;;;;;4914278;29;20011;-62
2022/08/30 11:59:22;;;;;;;;;;;26.20;69.40;;;;;;4915831;29;19927;-61
2022/08/30 12:01:48;;;;;;;;;;;26.40;69.80;;;;;;4916842;29;19927;-72
2022/08/30 12:04:18;;;;;;;;;;;26.40;70.60;;;;;;4901360;29;19923;-72
2022/08/30 12:06:46;;;;;;;;;;;26.40;69.60;;;;;;4915156;29;19955;-69
2022/08/30 12:09:15;;;;;;;;;;;26.50;69.40;;;;;;4915568;29;19963;-62
2022/08/30 12:11:51;;;;;;;;;;;26.60;69.40;;;;;;4916082;29;19933;-62
2022/08/30 12:14:43;;;;;;;;;;;26.50;69.60;;;;;;4901340;29;19978;-62
2022/08/30 12:19:58;;;;;;;;;;;26.40;70.60;;;;;;4901663;29;19927;-61
2022/08/30 12:22:24;;;;;;;;;;;26.40;70.10;;;;;;4941565;29;19987;-62
2022/08/30 12:24:50;;;;;;;;;;;26.30;71.30;;;;;;4955489;29;19926;-61
2022/08/30 12:27:26;;;;;;;;;;;26.30;71.40;;;;;;4939030;29;19930;-61
2022/08/30 12:29:52;;;;;;;;;;;26.50;70.10;;;;;;4947289;28;19962;-62
2022/08/30 12:32:20;;;;;;;;;;;26.30;71.50;;;;;;5055249;28;19925;-62
2022/08/30 12:35:06;;;;;;;;;;;26.70;71.20;;;;;;5055162;28;19929;-62
2022/08/30 12:37:36;;;;;;;;;;;26.10;71.00;;;;;;5045804;28;19925;-62
2022/08/30 12:40:01;;;;;;;;;;;26.30;69.80;;;;;;5035724;28;20012;-62
2022/08/30 12:42:28;;;;;;;;;;;26.30;71.30;;;;;;5054352;28;20498;-62
2022/08/30 12:44:56;;;;;;;;;;;26.50;71.90;;;;;;5035230;28;20449;-62
2022/08/30 12:47:26;;;;;;;;;;;26.50;72.00;;;;;;5038269;28;20272;-62
2022/08/30 12:49:54;;;;;;;;;;;26.70;71.10;;;;;;5039085;28;19976;-62
2022/08/30 12:52:21;;;;;;;;;;;26.60;72.40;;;;;;5024503;28;19932;-62
2022/08/30 12:54:47;;;;;;;;;;;26.60;72.20;;;;;;5035154;28;19925;-62
2022/08/30 12:57:13;;;;;;;;;;;26.70;72.30;;;;;;5052243;28;19929;-62
2022/08/30 12:59:45;;;;;;;;;;;26.70;72.30;;;;;;5045813;28;20000;-61
2022/08/30 13:02:15;;;;;;;;;;;26.60;71.20;;;;;;5035481;28;20012;-62
2022/08/30 13:04:40;;;;;;;;;;;26.50;72.60;;;;;;5034723;28;20283;-61
2022/08/30 13:07:06;;;;;;;;;;;26.70;72.20;;;;;;5034176;28;19933;-62
2022/08/30 13:09:39;;;;;;;;;;;26.80;72.30;;;;;;5035192;28;20290;-63
2022/08/30 13:12:05;;;;;;;;;;;27.00;71.20;;;;;;5032406;28;19932;-61
2022/08/30 13:14:38;;;;;;;;;;;26.70;72.40;;;;;;5069722;28;19924;-62
2022/08/30 13:17:23;;;;;;;;;;;26.80;71.40;;;;;;5054046;28;19959;-63
2022/08/30 13:19:54;;;;;;;;;;;26.70;71.20;;;;;;5053282;28;19929;-62
2022/08/30 13:22:24;;;;;;;;;;;26.80;70.70;;;;;;5053023;28;19925;-67
2022/08/30 13:24:50;;;;;;;;;;;26.60;70.40;;;;;;5053577;28;19925;-62
2022/08/30 13:27:16;;;;;;;;;;;26.40;71.40;;;;;;5068763;28;20332;-63
2022/08/30 13:29:41;;;;;;;;;;;26.70;71.40;;;;;;5034816;28;20012;-61
2022/08/30 13:32:07;;;;;;;;;;;26.80;71.60;;;;;;5049156;28;19925;-62
2022/08/30 13:34:34;;;;;;;;;;;26.50;71.30;;;;;;5029340;28;19929;-64
2022/08/30 13:37:00;;;;;;;;;;;26.90;72.30;;;;;;5034267;28;19925;-62
2022/08/30 13:39:26;;;;;;;;;;;26.60;71.40;;;;;;5032325;28;20402;-61
2022/08/30 13:41:52;;;;;;;;;;;26.60;71.90;;;;;;5034058;28;19995;-61
2022/08/30 13:44:17;;;;;;;;;;;26.70;71.60;;;;;;5043844;28;19925;-61
2022/08/30 13:46:44;;;;;;;;;;;26.40;71.30;;;;;;5038509;28;19947;-61
2022/08/30 13:49:13;;;;;;;;;;;26.50;71.60;;;;;;5034059;28;20055;-61
2022/08/30 13:51:38;;;;;;;;;;;26.50;71.90;;;;;;5043178;28;19932;-62
2022/08/30 13:54:04;;;;;;;;;;;26.40;71.60;;;;;;5034014;28;20383;-61
2022/08/30 13:56:30;;;;;;;;;;;26.60;72.10;;;;;;5033863;28;19932;-61
2022/08/30 13:58:57;;;;;;;;;;;26.50;72.00;;;;;;5034013;28;20346;-62
2022/08/30 14:01:22;;;;;;;;;;;26.70;72.50;;;;;;5047007;28;20378;-61
2022/08/30 14:03:48;;;;;;;;;;;26.60;72.10;;;;;;5038702;28;19940;-62
2022/08/30 14:06:13;;;;;;;;;;;26.70;71.70;;;;;;5036474;28;20378;-62
2022/08/30 14:08:39;;;;;;;;;;;26.60;71.70;;;;;;5038074;28;20367;-62
2022/08/30 14:11:05;;;;;;;;;;;26.60;71.70;;;;;;5048056;28;19925;-61
2022/08/30 14:13:31;;;;;;;;;;;26.50;71.50;;;;;;5057427;28;19932;-61
2022/08/30 14:15:58;;;;;;;;;;;26.70;71.90;;;;;;5051637;28;19926;-61
2022/08/30 14:18:24;;;;;;;;;;;26.60;72.00;;;;;;5036390;28;20287;-61
2022/08/30 14:20:50;;;;;;;;;;;26.80;71.80;;;;;;5039200;28;19931;-61
2022/08/30 14:23:15;;;;;;;;;;;26.60;71.60;;;;;;5037509;28;19921;-61
2022/08/30 14:25:41;;;;;;;;;;;26.40;70.90;;;;;;5037424;28;19951;-62
2022/08/30 14:28:07;;;;;;;;;;;26.50;71.90;;;;;;5038048;28;19971;-61